sensor_id;sensor_type;location;lat;lon;timestamp;P1;durP1;ratioP1;P2;durP2;ratioP2
17943;SDS011;9097;47.028;15.444;2023-06-10T00:01:44;2.88;;;2.17;;
17943;SDS011;9097;47.028;15.444;2023-06-10T00:04:47;3.10;;;2.20;;
17943;SDS011;9097;47.028;15.444;2023-06-10T00:07:50;2.78;;;1.88;;
17943;SDS011;9097;47.028;15.444;2023-06-10T00:10:55;3.50;;;2.03;;
17943;SDS011;9097;47.028;15.444;2023-06-10T00:13:59;2.85;;;2.05;;
17943;SDS011;9097;47.028;15.444;2023-06-10T00:17:01;1.75;;;1.60;;
17943;SDS011;9097;47.028;15.444;2023-06-10T00:20:05;3.17;;;1.40;;
17943;SDS011;9097;47.028;15.444;2023-06-10T00:23:09;1.90;;;1.23;;
17943;SDS011;9097;47.028;15.444;2023-06-10T00:26:11;2.53;;;1.58;;
17943;SDS011;9097;47.028;15.444;2023-06-10T00:29:15;1.73;;;1.52;;
17943;SDS011;9097;47.028;15.444;2023-06-10T00:32:18;3.70;;;1.77;;
17943;SDS011;9097;47.028;15.444;2023-06-10T00:35:20;1.80;;;1.65;;
17943;SDS011;9097;47.028;15.444;2023-06-10T00:38:23;2.88;;;1.58;;
17943;SDS011;9097;47.028;15.444;2023-06-10T00:41:25;1.85;;;1.25;;
17943;SDS011;9097;47.028;15.444;2023-06-10T00:44:29;2.08;;;1.38;;
17943;SDS011;9097;47.028;15.444;2023-06-10T00:47:32;1.73;;;1.63;;
17943;SDS011;9097;47.028;15.444;2023-06-10T00:50:35;2.22;;;2.03;;
17943;SDS011;9097;47.028;15.444;2023-06-10T00:53:40;3.80;;;2.25;;
17943;SDS011;9097;47.028;15.444;2023-06-10T00:56:43;3.08;;;2.20;;
17943;SDS011;9097;47.028;15.444;2023-06-10T00:59:48;2.45;;;1.75;;
17943;SDS011;9097;47.028;15.444;2023-06-10T01:02:51;1.67;;;1.52;;
17943;SDS011;9097;47.028;15.444;2023-06-10T01:06:03;3.65;;;1.73;;
17943;SDS011;9097;47.028;15.444;2023-06-10T01:09:11;3.38;;;1.63;;
17943;SDS011;9097;47.028;15.444;2023-06-10T01:12:16;1.48;;;1.38;;
17943;SDS011;9097;47.028;15.444;2023-06-10T01:15:22;1.63;;;1.52;;
17943;SDS011;9097;47.028;15.444;2023-06-10T01:18:29;2.55;;;2.10;;
17943;SDS011;9097;47.028;15.444;2023-06-10T01:21:34;2.67;;;1.55;;
17943;SDS011;9097;47.028;15.444;2023-06-10T01:24:36;2.53;;;1.70;;
17943;SDS011;9097;47.028;15.444;2023-06-10T01:27:40;2.50;;;1.98;;
17943;SDS011;9097;47.028;15.444;2023-06-10T01:30:46;3.15;;;1.73;;
17943;SDS011;9097;47.028;15.444;2023-06-10T01:33:51;3.25;;;2.00;;
17943;SDS011;9097;47.028;15.444;2023-06-10T01:36:55;2.53;;;2.08;;
17943;SDS011;9097;47.028;15.444;2023-06-10T01:40:00;2.60;;;1.38;;
17943;SDS011;9097;47.028;15.444;2023-06-10T01:43:06;2.60;;;1.85;;
17943;SDS011;9097;47.028;15.444;2023-06-10T01:46:09;2.28;;;1.60;;
17943;SDS011;9097;47.028;15.444;2023-06-10T01:49:11;1.88;;;1.60;;
17943;SDS011;9097;47.028;15.444;2023-06-10T01:52:15;4.10;;;2.10;;
17943;SDS011;9097;47.028;15.444;2023-06-10T01:55:18;2.35;;;1.77;;
17943;SDS011;9097;47.028;15.444;2023-06-10T01:58:21;2.08;;;1.85;;
17943;SDS011;9097;47.028;15.444;2023-06-10T02:01:23;3.22;;;1.65;;
17943;SDS011;9097;47.028;15.444;2023-06-10T02:04:26;2.45;;;1.67;;
17943;SDS011;9097;47.028;15.444;2023-06-10T02:07:30;3.95;;;1.95;;
17943;SDS011;9097;47.028;15.444;2023-06-10T02:10:32;2.13;;;1.40;;
17943;SDS011;9097;47.028;15.444;2023-06-10T02:13:35;4.32;;;1.73;;
17943;SDS011;9097;47.028;15.444;2023-06-10T02:16:37;3.17;;;1.75;;
17943;SDS011;9097;47.028;15.444;2023-06-10T02:19:40;2.95;;;2.08;;
17943;SDS011;9097;47.028;15.444;2023-06-10T02:22:45;4.93;;;1.90;;
17943;SDS011;9097;47.028;15.444;2023-06-10T02:25:48;6.13;;;2.83;;
17943;SDS011;9097;47.028;15.444;2023-06-10T02:28:50;3.15;;;2.28;;
17943;SDS011;9097;47.028;15.444;2023-06-10T02:31:53;2.38;;;1.60;;
17943;SDS011;9097;47.028;15.444;2023-06-10T02:34:56;3.00;;;2.08;;
17943;SDS011;9097;47.028;15.444;2023-06-10T02:38:01;4.18;;;2.15;;
17943;SDS011;9097;47.028;15.444;2023-06-10T02:41:04;4.85;;;2.15;;
17943;SDS011;9097;47.028;15.444;2023-06-10T02:44:06;3.78;;;2.10;;
17943;SDS011;9097;47.028;15.444;2023-06-10T02:47:09;2.72;;;1.92;;
17943;SDS011;9097;47.028;15.444;2023-06-10T02:50:12;1.83;;;1.52;;
17943;SDS011;9097;47.028;15.444;2023-06-10T02:53:16;1.67;;;1.50;;
17943;SDS011;9097;47.028;15.444;2023-06-10T02:56:19;2.13;;;1.73;;
17943;SDS011;9097;47.028;15.444;2023-06-10T02:59:22;4.38;;;2.28;;
17943;SDS011;9097;47.028;15.444;2023-06-10T03:02:24;3.60;;;2.10;;
17943;SDS011;9097;47.028;15.444;2023-06-10T03:05:28;2.13;;;1.90;;
17943;SDS011;9097;47.028;15.444;2023-06-10T03:08:32;1.73;;;1.63;;
17943;SDS011;9097;47.028;15.444;2023-06-10T03:11:35;3.05;;;1.83;;
17943;SDS011;9097;47.028;15.444;2023-06-10T03:14:37;3.70;;;2.17;;
17943;SDS011;9097;47.028;15.444;2023-06-10T03:17:40;5.18;;;2.17;;
17943;SDS011;9097;47.028;15.444;2023-06-10T03:20:42;1.75;;;1.65;;
17943;SDS011;9097;47.028;15.444;2023-06-10T03:23:47;3.33;;;1.85;;
17943;SDS011;9097;47.028;15.444;2023-06-10T03:26:50;2.33;;;2.08;;
17943;SDS011;9097;47.028;15.444;2023-06-10T03:29:52;1.63;;;1.40;;
17943;SDS011;9097;47.028;15.444;2023-06-10T03:32:55;2.03;;;1.83;;
17943;SDS011;9097;47.028;15.444;2023-06-10T03:35:57;4.10;;;1.95;;
17943;SDS011;9097;47.028;15.444;2023-06-10T03:39:01;3.25;;;1.98;;
17943;SDS011;9097;47.028;15.444;2023-06-10T03:42:04;2.37;;;1.73;;
17943;SDS011;9097;47.028;15.444;2023-06-10T03:45:07;2.13;;;1.60;;
17943;SDS011;9097;47.028;15.444;2023-06-10T03:48:10;3.57;;;1.90;;
17943;SDS011;9097;47.028;15.444;2023-06-10T03:51:13;2.45;;;1.77;;
17943;SDS011;9097;47.028;15.444;2023-06-10T03:54:16;2.72;;;1.25;;
17943;SDS011;9097;47.028;15.444;2023-06-10T03:57:19;2.53;;;1.75;;
17943;SDS011;9097;47.028;15.444;2023-06-10T04:00:21;4.78;;;1.88;;
17943;SDS011;9097;47.028;15.444;2023-06-10T04:03:24;3.58;;;2.25;;
17943;SDS011;9097;47.028;15.444;2023-06-10T04:06:27;2.95;;;1.98;;
17943;SDS011;9097;47.028;15.444;2023-06-10T04:09:32;2.47;;;1.65;;
17943;SDS011;9097;47.028;15.444;2023-06-10T04:12:36;4.15;;;1.92;;
17943;SDS011;9097;47.028;15.444;2023-06-10T04:15:38;3.22;;;2.38;;
17943;SDS011;9097;47.028;15.444;2023-06-10T04:18:41;3.38;;;2.38;;
17943;SDS011;9097;47.028;15.444;2023-06-10T04:21:43;2.42;;;1.42;;
17943;SDS011;9097;47.028;15.444;2023-06-10T04:24:47;1.98;;;1.65;;
17943;SDS011;9097;47.028;15.444;2023-06-10T04:27:50;2.63;;;1.92;;
17943;SDS011;9097;47.028;15.444;2023-06-10T04:30:53;1.83;;;1.70;;
17943;SDS011;9097;47.028;15.444;2023-06-10T04:33:55;3.42;;;1.85;;
17943;SDS011;9097;47.028;15.444;2023-06-10T04:36:58;3.28;;;1.75;;
17943;SDS011;9097;47.028;15.444;2023-06-10T04:40:02;2.35;;;2.10;;
17943;SDS011;9097;47.028;15.444;2023-06-10T04:43:06;1.90;;;1.58;;
17943;SDS011;9097;47.028;15.444;2023-06-10T04:46:08;3.15;;;2.28;;
17943;SDS011;9097;47.028;15.444;2023-06-10T04:49:11;2.45;;;1.85;;
17943;SDS011;9097;47.028;15.444;2023-06-10T04:52:14;2.90;;;1.83;;
17943;SDS011;9097;47.028;15.444;2023-06-10T04:55:18;2.33;;;1.40;;
17943;SDS011;9097;47.028;15.444;2023-06-10T04:58:22;2.92;;;1.45;;
17943;SDS011;9097;47.028;15.444;2023-06-10T05:01:24;3.08;;;2.22;;
17943;SDS011;9097;47.028;15.444;2023-06-10T05:04:28;2.25;;;1.60;;
17943;SDS011;9097;47.028;15.444;2023-06-10T05:07:30;2.35;;;2.15;;
17943;SDS011;9097;47.028;15.444;2023-06-10T05:10:34;3.50;;;2.08;;
17943;SDS011;9097;47.028;15.444;2023-06-10T05:13:37;2.95;;;1.50;;
17943;SDS011;9097;47.028;15.444;2023-06-10T05:16:40;3.83;;;2.05;;
17943;SDS011;9097;47.028;15.444;2023-06-10T05:19:43;3.13;;;1.80;;
17943;SDS011;9097;47.028;15.444;2023-06-10T05:22:47;3.03;;;1.77;;
17943;SDS011;9097;47.028;15.444;2023-06-10T05:25:51;3.25;;;2.22;;
17943;SDS011;9097;47.028;15.444;2023-06-10T05:28:53;2.25;;;1.92;;
17943;SDS011;9097;47.028;15.444;2023-06-10T05:31:56;2.88;;;1.85;;
17943;SDS011;9097;47.028;15.444;2023-06-10T05:35:03;2.05;;;1.85;;
17943;SDS011;9097;47.028;15.444;2023-06-10T05:38:06;1.85;;;1.60;;
17943;SDS011;9097;47.028;15.444;2023-06-10T05:41:10;2.08;;;1.67;;
17943;SDS011;9097;47.028;15.444;2023-06-10T05:44:12;3.10;;;2.22;;
17943;SDS011;9097;47.028;15.444;2023-06-10T05:47:15;2.40;;;1.80;;
17943;SDS011;9097;47.028;15.444;2023-06-10T05:50:18;3.35;;;1.33;;
17943;SDS011;9097;47.028;15.444;2023-06-10T05:53:20;3.03;;;1.63;;
17943;SDS011;9097;47.028;15.444;2023-06-10T05:56:24;2.72;;;2.30;;
17943;SDS011;9097;47.028;15.444;2023-06-10T05:59:27;4.57;;;2.30;;
17943;SDS011;9097;47.028;15.444;2023-06-10T06:02:29;3.70;;;2.30;;
17943;SDS011;9097;47.028;15.444;2023-06-10T06:05:32;3.90;;;2.15;;
17943;SDS011;9097;47.028;15.444;2023-06-10T06:08:35;3.25;;;2.33;;
17943;SDS011;9097;47.028;15.444;2023-06-10T06:11:40;3.75;;;2.50;;
17943;SDS011;9097;47.028;15.444;2023-06-10T06:14:43;4.97;;;2.58;;
17943;SDS011;9097;47.028;15.444;2023-06-10T06:17:46;2.78;;;2.03;;
17943;SDS011;9097;47.028;15.444;2023-06-10T06:20:49;3.78;;;2.45;;
17943;SDS011;9097;47.028;15.444;2023-06-10T06:23:51;2.60;;;1.85;;
17943;SDS011;9097;47.028;15.444;2023-06-10T06:26:55;2.47;;;1.73;;
17943;SDS011;9097;47.028;15.444;2023-06-10T06:29:58;4.07;;;2.45;;
17943;SDS011;9097;47.028;15.444;2023-06-10T06:33:00;3.20;;;2.20;;
17943;SDS011;9097;47.028;15.444;2023-06-10T06:36:03;4.45;;;2.78;;
17943;SDS011;9097;47.028;15.444;2023-06-10T06:39:05;6.20;;;2.63;;
17943;SDS011;9097;47.028;15.444;2023-06-10T06:42:10;3.28;;;2.28;;
17943;SDS011;9097;47.028;15.444;2023-06-10T06:45:12;5.28;;;2.72;;
17943;SDS011;9097;47.028;15.444;2023-06-10T06:48:15;3.42;;;2.88;;
17943;SDS011;9097;47.028;15.444;2023-06-10T06:51:17;3.63;;;2.55;;
17943;SDS011;9097;47.028;15.444;2023-06-10T06:54:20;3.33;;;2.85;;
17943;SDS011;9097;47.028;15.444;2023-06-10T06:57:24;2.72;;;2.17;;
17943;SDS011;9097;47.028;15.444;2023-06-10T07:00:27;4.88;;;2.53;;
17943;SDS011;9097;47.028;15.444;2023-06-10T07:03:29;2.90;;;2.58;;
17943;SDS011;9097;47.028;15.444;2023-06-10T07:06:32;3.72;;;2.78;;
17943;SDS011;9097;47.028;15.444;2023-06-10T07:09:36;4.30;;;2.30;;
17943;SDS011;9097;47.028;15.444;2023-06-10T07:12:39;2.75;;;2.33;;
17943;SDS011;9097;47.028;15.444;2023-06-10T07:15:42;4.60;;;2.65;;
17943;SDS011;9097;47.028;15.444;2023-06-10T07:18:45;5.43;;;2.83;;
17943;SDS011;9097;47.028;15.444;2023-06-10T07:21:47;6.85;;;3.03;;
17943;SDS011;9097;47.028;15.444;2023-06-10T07:24:50;3.83;;;2.28;;
17943;SDS011;9097;47.028;15.444;2023-06-10T07:27:56;3.38;;;2.15;;
17943;SDS011;9097;47.028;15.444;2023-06-10T07:30:59;9.77;;;2.92;;
17943;SDS011;9097;47.028;15.444;2023-06-10T07:34:01;2.97;;;2.35;;
17943;SDS011;9097;47.028;15.444;2023-06-10T07:37:04;3.63;;;2.90;;
17943;SDS011;9097;47.028;15.444;2023-06-10T07:40:07;5.65;;;2.92;;
17943;SDS011;9097;47.028;15.444;2023-06-10T07:43:12;4.70;;;2.38;;
17943;SDS011;9097;47.028;15.444;2023-06-10T07:46:14;3.53;;;2.33;;
17943;SDS011;9097;47.028;15.444;2023-06-10T07:49:17;3.33;;;1.98;;
17943;SDS011;9097;47.028;15.444;2023-06-10T07:52:19;5.45;;;2.70;;
17943;SDS011;9097;47.028;15.444;2023-06-10T07:55:22;4.18;;;2.55;;
17943;SDS011;9097;47.028;15.444;2023-06-10T07:58:28;4.32;;;3.20;;
17943;SDS011;9097;47.028;15.444;2023-06-10T08:01:31;5.88;;;2.72;;
17943;SDS011;9097;47.028;15.444;2023-06-10T08:04:33;4.43;;;2.50;;
17943;SDS011;9097;47.028;15.444;2023-06-10T08:07:36;4.40;;;2.50;;
17943;SDS011;9097;47.028;15.444;2023-06-10T08:10:39;5.45;;;3.03;;
17943;SDS011;9097;47.028;15.444;2023-06-10T08:13:43;3.63;;;2.60;;
17943;SDS011;9097;47.028;15.444;2023-06-10T08:16:45;5.20;;;2.92;;
17943;SDS011;9097;47.028;15.444;2023-06-10T08:19:48;5.78;;;2.92;;
17943;SDS011;9097;47.028;15.444;2023-06-10T08:22:50;5.20;;;3.38;;
17943;SDS011;9097;47.028;15.444;2023-06-10T08:25:52;4.10;;;2.78;;
17943;SDS011;9097;47.028;15.444;2023-06-10T08:28:56;3.45;;;2.72;;
17943;SDS011;9097;47.028;15.444;2023-06-10T08:31:59;5.80;;;2.90;;
17943;SDS011;9097;47.028;15.444;2023-06-10T08:35:02;5.25;;;2.72;;
17943;SDS011;9097;47.028;15.444;2023-06-10T08:38:05;3.50;;;2.35;;
17943;SDS011;9097;47.028;15.444;2023-06-10T08:41:07;5.13;;;3.42;;
17943;SDS011;9097;47.028;15.444;2023-06-10T08:44:16;4.90;;;2.97;;
17943;SDS011;9097;47.028;15.444;2023-06-10T08:47:20;5.20;;;2.53;;
17943;SDS011;9097;47.028;15.444;2023-06-10T08:50:24;3.30;;;2.38;;
17943;SDS011;9097;47.028;15.444;2023-06-10T08:53:30;3.95;;;2.75;;
17943;SDS011;9097;47.028;15.444;2023-06-10T08:56:34;5.35;;;2.55;;
17943;SDS011;9097;47.028;15.444;2023-06-10T08:59:41;2.78;;;2.33;;
17943;SDS011;9097;47.028;15.444;2023-06-10T09:02:44;4.80;;;3.10;;
17943;SDS011;9097;47.028;15.444;2023-06-10T09:05:46;5.07;;;2.45;;
17943;SDS011;9097;47.028;15.444;2023-06-10T09:08:49;6.07;;;2.78;;
17943;SDS011;9097;47.028;15.444;2023-06-10T09:11:52;4.10;;;2.40;;
17943;SDS011;9097;47.028;15.444;2023-06-10T09:14:56;5.43;;;2.90;;
17943;SDS011;9097;47.028;15.444;2023-06-10T09:17:59;3.92;;;2.60;;
17943;SDS011;9097;47.028;15.444;2023-06-10T09:21:02;4.43;;;2.65;;
17943;SDS011;9097;47.028;15.444;2023-06-10T09:24:05;7.25;;;3.55;;
17943;SDS011;9097;47.028;15.444;2023-06-10T09:27:08;4.40;;;2.90;;
17943;SDS011;9097;47.028;15.444;2023-06-10T09:30:13;4.15;;;2.63;;
17943;SDS011;9097;47.028;15.444;2023-06-10T09:33:26;2.67;;;1.85;;
17943;SDS011;9097;47.028;15.444;2023-06-10T09:36:29;4.78;;;2.60;;
17943;SDS011;9097;47.028;15.444;2023-06-10T09:39:31;3.28;;;2.40;;
17943;SDS011;9097;47.028;15.444;2023-06-10T09:42:34;4.43;;;3.13;;
17943;SDS011;9097;47.028;15.444;2023-06-10T09:45:38;4.80;;;2.78;;
17943;SDS011;9097;47.028;15.444;2023-06-10T09:48:41;6.32;;;2.78;;
17943;SDS011;9097;47.028;15.444;2023-06-10T09:51:49;3.97;;;2.38;;
17943;SDS011;9097;47.028;15.444;2023-06-10T09:54:53;2.78;;;2.40;;
17943;SDS011;9097;47.028;15.444;2023-06-10T09:57:55;3.25;;;2.30;;
17943;SDS011;9097;47.028;15.444;2023-06-10T10:00:59;6.32;;;2.42;;
17943;SDS011;9097;47.028;15.444;2023-06-10T10:04:06;4.05;;;2.40;;
17943;SDS011;9097;47.028;15.444;2023-06-10T10:07:09;3.40;;;2.13;;
17943;SDS011;9097;47.028;15.444;2023-06-10T10:10:12;3.90;;;2.47;;
17943;SDS011;9097;47.028;15.444;2023-06-10T10:13:15;3.88;;;2.00;;
17943;SDS011;9097;47.028;15.444;2023-06-10T10:16:20;4.20;;;2.83;;
17943;SDS011;9097;47.028;15.444;2023-06-10T10:19:25;2.95;;;2.28;;
17943;SDS011;9097;47.028;15.444;2023-06-10T10:22:31;4.35;;;2.40;;
17943;SDS011;9097;47.028;15.444;2023-06-10T10:25:38;3.70;;;2.35;;
17943;SDS011;9097;47.028;15.444;2023-06-10T10:28:41;5.97;;;2.90;;
17943;SDS011;9097;47.028;15.444;2023-06-10T10:31:48;4.90;;;2.25;;
17943;SDS011;9097;47.028;15.444;2023-06-10T10:34:56;5.03;;;2.70;;
17943;SDS011;9097;47.028;15.444;2023-06-10T10:38:00;5.72;;;2.85;;
17943;SDS011;9097;47.028;15.444;2023-06-10T10:41:02;2.75;;;2.20;;
17943;SDS011;9097;47.028;15.444;2023-06-10T10:44:06;4.90;;;2.47;;
17943;SDS011;9097;47.028;15.444;2023-06-10T10:47:11;4.32;;;2.38;;
17943;SDS011;9097;47.028;15.444;2023-06-10T10:50:15;3.42;;;2.13;;
17943;SDS011;9097;47.028;15.444;2023-06-10T10:53:19;2.45;;;1.77;;
17943;SDS011;9097;47.028;15.444;2023-06-10T10:56:22;4.05;;;2.13;;
17943;SDS011;9097;47.028;15.444;2023-06-10T10:59:42;3.90;;;2.42;;
17943;SDS011;9097;47.028;15.444;2023-06-10T11:02:46;4.30;;;2.17;;
17943;SDS011;9097;47.028;15.444;2023-06-10T11:05:53;2.17;;;1.92;;
17943;SDS011;9097;47.028;15.444;2023-06-10T11:08:59;4.68;;;2.80;;
17943;SDS011;9097;47.028;15.444;2023-06-10T11:12:01;3.22;;;2.42;;
17943;SDS011;9097;47.028;15.444;2023-06-10T11:15:04;2.67;;;2.10;;
17943;SDS011;9097;47.028;15.444;2023-06-10T11:18:12;3.42;;;1.98;;
17943;SDS011;9097;47.028;15.444;2023-06-10T11:21:16;2.38;;;1.67;;
17943;SDS011;9097;47.028;15.444;2023-06-10T11:24:19;3.33;;;2.65;;
17943;SDS011;9097;47.028;15.444;2023-06-10T11:27:21;4.32;;;2.35;;
17943;SDS011;9097;47.028;15.444;2023-06-10T11:30:25;3.17;;;2.60;;
17943;SDS011;9097;47.028;15.444;2023-06-10T11:33:29;3.85;;;2.58;;
17943;SDS011;9097;47.028;15.444;2023-06-10T11:36:33;2.63;;;2.28;;
17943;SDS011;9097;47.028;15.444;2023-06-10T11:39:36;3.78;;;1.95;;
17943;SDS011;9097;47.028;15.444;2023-06-10T11:42:40;3.63;;;2.40;;
17943;SDS011;9097;47.028;15.444;2023-06-10T11:45:43;3.15;;;2.70;;
17943;SDS011;9097;47.028;15.444;2023-06-10T11:48:51;3.72;;;2.53;;
17943;SDS011;9097;47.028;15.444;2023-06-10T11:51:54;5.38;;;2.22;;
17943;SDS011;9097;47.028;15.444;2023-06-10T11:54:56;5.43;;;2.25;;
17943;SDS011;9097;47.028;15.444;2023-06-10T11:57:59;2.97;;;2.05;;
17943;SDS011;9097;47.028;15.444;2023-06-10T12:01:02;3.95;;;1.60;;
17943;SDS011;9097;47.028;15.444;2023-06-10T12:04:06;3.63;;;1.70;;
17943;SDS011;9097;47.028;15.444;2023-06-10T12:07:14;2.40;;;1.70;;
17943;SDS011;9097;47.028;15.444;2023-06-10T12:10:18;2.65;;;2.03;;
17943;SDS011;9097;47.028;15.444;2023-06-10T12:13:21;3.58;;;2.35;;
17943;SDS011;9097;47.028;15.444;2023-06-10T12:16:24;3.08;;;1.77;;
17943;SDS011;9097;47.028;15.444;2023-06-10T12:19:28;2.88;;;2.58;;
17943;SDS011;9097;47.028;15.444;2023-06-10T12:22:35;3.03;;;2.38;;
17943;SDS011;9097;47.028;15.444;2023-06-10T12:25:38;2.72;;;2.20;;
17943;SDS011;9097;47.028;15.444;2023-06-10T12:28:50;2.55;;;2.00;;
17943;SDS011;9097;47.028;15.444;2023-06-10T12:31:57;2.65;;;2.25;;
17943;SDS011;9097;47.028;15.444;2023-06-10T12:35:03;3.10;;;2.00;;
17943;SDS011;9097;47.028;15.444;2023-06-10T12:38:06;2.97;;;1.80;;
17943;SDS011;9097;47.028;15.444;2023-06-10T12:41:11;3.85;;;2.15;;
17943;SDS011;9097;47.028;15.444;2023-06-10T12:44:14;2.67;;;1.83;;
17943;SDS011;9097;47.028;15.444;2023-06-10T12:47:16;2.42;;;1.65;;
17943;SDS011;9097;47.028;15.444;2023-06-10T12:50:20;3.92;;;2.28;;
17943;SDS011;9097;47.028;15.444;2023-06-10T12:53:23;2.25;;;1.67;;
17943;SDS011;9097;47.028;15.444;2023-06-10T12:56:26;3.58;;;1.92;;
17943;SDS011;9097;47.028;15.444;2023-06-10T12:59:29;2.25;;;1.92;;
17943;SDS011;9097;47.028;15.444;2023-06-10T13:02:32;3.00;;;1.80;;
17943;SDS011;9097;47.028;15.444;2023-06-10T13:05:36;4.38;;;2.25;;
17943;SDS011;9097;47.028;15.444;2023-06-10T13:08:39;1.98;;;1.60;;
17943;SDS011;9097;47.028;15.444;2023-06-10T13:11:42;2.60;;;1.73;;
17943;SDS011;9097;47.028;15.444;2023-06-10T13:14:44;2.80;;;1.50;;
17943;SDS011;9097;47.028;15.444;2023-06-10T13:17:47;1.95;;;1.48;;
17943;SDS011;9097;47.028;15.444;2023-06-10T13:20:52;2.35;;;1.77;;
17943;SDS011;9097;47.028;15.444;2023-06-10T13:23:55;2.28;;;1.73;;
17943;SDS011;9097;47.028;15.444;2023-06-10T13:26:58;2.30;;;2.10;;
17943;SDS011;9097;47.028;15.444;2023-06-10T13:30:06;3.83;;;2.05;;
17943;SDS011;9097;47.028;15.444;2023-06-10T13:33:10;2.40;;;1.70;;
17943;SDS011;9097;47.028;15.444;2023-06-10T13:36:14;2.92;;;1.45;;
17943;SDS011;9097;47.028;15.444;2023-06-10T13:39:17;2.25;;;1.55;;
17943;SDS011;9097;47.028;15.444;2023-06-10T13:42:20;3.20;;;1.85;;
17943;SDS011;9097;47.028;15.444;2023-06-10T13:45:23;3.50;;;2.03;;
17943;SDS011;9097;47.028;15.444;2023-06-10T13:48:26;4.07;;;2.20;;
17943;SDS011;9097;47.028;15.444;2023-06-10T13:51:30;2.03;;;1.25;;
17943;SDS011;9097;47.028;15.444;2023-06-10T13:54:33;4.43;;;2.20;;
17943;SDS011;9097;47.028;15.444;2023-06-10T13:57:36;2.08;;;1.75;;
17943;SDS011;9097;47.028;15.444;2023-06-10T14:00:38;3.20;;;1.98;;
17943;SDS011;9097;47.028;15.444;2023-06-10T14:03:41;1.45;;;1.23;;
17943;SDS011;9097;47.028;15.444;2023-06-10T14:06:45;3.97;;;1.77;;
17943;SDS011;9097;47.028;15.444;2023-06-10T14:09:48;3.63;;;2.03;;
17943;SDS011;9097;47.028;15.444;2023-06-10T14:12:51;2.25;;;1.40;;
17943;SDS011;9097;47.028;15.444;2023-06-10T14:15:53;3.78;;;1.80;;
17943;SDS011;9097;47.028;15.444;2023-06-10T14:18:56;1.83;;;1.48;;
17943;SDS011;9097;47.028;15.444;2023-06-10T14:22:00;1.20;;;0.98;;
17943;SDS011;9097;47.028;15.444;2023-06-10T14:25:03;2.97;;;1.67;;
17943;SDS011;9097;47.028;15.444;2023-06-10T14:28:06;3.63;;;1.33;;
17943;SDS011;9097;47.028;15.444;2023-06-10T14:31:09;1.90;;;1.38;;
17943;SDS011;9097;47.028;15.444;2023-06-10T14:34:11;2.30;;;1.52;;
17943;SDS011;9097;47.028;15.444;2023-06-10T14:37:15;1.73;;;1.13;;
17943;SDS011;9097;47.028;15.444;2023-06-10T14:40:18;1.70;;;1.20;;
17943;SDS011;9097;47.028;15.444;2023-06-10T14:43:21;2.42;;;1.38;;
17943;SDS011;9097;47.028;15.444;2023-06-10T14:46:24;2.55;;;1.60;;
17943;SDS011;9097;47.028;15.444;2023-06-10T14:49:26;2.17;;;1.70;;
17943;SDS011;9097;47.028;15.444;2023-06-10T14:52:30;2.65;;;1.88;;
17943;SDS011;9097;47.028;15.444;2023-06-10T14:55:33;4.43;;;1.50;;
17943;SDS011;9097;47.028;15.444;2023-06-10T14:58:35;2.90;;;2.25;;
17943;SDS011;9097;47.028;15.444;2023-06-10T15:01:38;2.50;;;1.50;;
17943;SDS011;9097;47.028;15.444;2023-06-10T15:04:42;4.78;;;2.28;;
17943;SDS011;9097;47.028;15.444;2023-06-10T15:07:45;1.50;;;1.40;;
17943;SDS011;9097;47.028;15.444;2023-06-10T15:10:48;4.60;;;1.77;;
17943;SDS011;9097;47.028;15.444;2023-06-10T15:13:50;3.08;;;1.75;;
17943;SDS011;9097;47.028;15.444;2023-06-10T15:16:53;4.57;;;1.85;;
17943;SDS011;9097;47.028;15.444;2023-06-10T15:19:56;2.25;;;2.03;;
17943;SDS011;9097;47.028;15.444;2023-06-10T15:23:00;2.13;;;1.45;;
17943;SDS011;9097;47.028;15.444;2023-06-10T15:26:02;3.95;;;2.55;;
17943;SDS011;9097;47.028;15.444;2023-06-10T15:29:05;3.70;;;1.90;;
17943;SDS011;9097;47.028;15.444;2023-06-10T15:32:08;1.58;;;1.10;;
17943;SDS011;9097;47.028;15.444;2023-06-10T15:35:10;2.15;;;1.95;;
17943;SDS011;9097;47.028;15.444;2023-06-10T15:38:14;1.85;;;1.58;;
17943;SDS011;9097;47.028;15.444;2023-06-10T15:41:17;1.92;;;1.67;;
17943;SDS011;9097;47.028;15.444;2023-06-10T15:44:19;3.67;;;2.03;;
17943;SDS011;9097;47.028;15.444;2023-06-10T15:47:22;3.33;;;1.80;;
17943;SDS011;9097;47.028;15.444;2023-06-10T15:50:24;2.03;;;1.75;;
17943;SDS011;9097;47.028;15.444;2023-06-10T15:53:28;2.65;;;2.13;;
17943;SDS011;9097;47.028;15.444;2023-06-10T15:56:31;2.45;;;1.30;;
17943;SDS011;9097;47.028;15.444;2023-06-10T15:59:33;3.10;;;1.70;;
17943;SDS011;9097;47.028;15.444;2023-06-10T16:02:36;2.25;;;1.75;;
17943;SDS011;9097;47.028;15.444;2023-06-10T16:05:39;2.80;;;2.03;;
17943;SDS011;9097;47.028;15.444;2023-06-10T16:08:43;1.67;;;1.30;;
17943;SDS011;9097;47.028;15.444;2023-06-10T16:11:46;2.78;;;2.05;;
17943;SDS011;9097;47.028;15.444;2023-06-10T16:14:48;3.20;;;1.90;;
17943;SDS011;9097;47.028;15.444;2023-06-10T16:17:51;2.20;;;1.70;;
17943;SDS011;9097;47.028;15.444;2023-06-10T16:20:54;2.40;;;1.45;;
17943;SDS011;9097;47.028;15.444;2023-06-10T16:23:58;3.05;;;2.15;;
17943;SDS011;9097;47.028;15.444;2023-06-10T16:27:00;2.47;;;1.98;;
17943;SDS011;9097;47.028;15.444;2023-06-10T16:30:03;5.53;;;1.60;;
17943;SDS011;9097;47.028;15.444;2023-06-10T16:33:06;2.53;;;1.58;;
17943;SDS011;9097;47.028;15.444;2023-06-10T16:36:08;2.72;;;2.03;;
17943;SDS011;9097;47.028;15.444;2023-06-10T16:39:12;2.30;;;1.50;;
17943;SDS011;9097;47.028;15.444;2023-06-10T16:42:15;1.98;;;1.40;;
17943;SDS011;9097;47.028;15.444;2023-06-10T16:45:18;1.38;;;1.20;;
17943;SDS011;9097;47.028;15.444;2023-06-10T16:48:20;1.85;;;1.50;;
17943;SDS011;9097;47.028;15.444;2023-06-10T16:51:23;2.38;;;1.52;;
17943;SDS011;9097;47.028;15.444;2023-06-10T16:54:27;3.80;;;1.67;;
17943;SDS011;9097;47.028;15.444;2023-06-10T16:57:29;1.52;;;1.40;;
17943;SDS011;9097;47.028;15.444;2023-06-10T17:00:32;2.35;;;1.45;;
17943;SDS011;9097;47.028;15.444;2023-06-10T17:03:35;1.50;;;1.10;;
17943;SDS011;9097;47.028;15.444;2023-06-10T17:06:37;5.15;;;1.73;;
17943;SDS011;9097;47.028;15.444;2023-06-10T17:09:41;1.50;;;1.40;;
17943;SDS011;9097;47.028;15.444;2023-06-10T17:12:44;1.83;;;1.55;;
17943;SDS011;9097;47.028;15.444;2023-06-10T17:15:46;1.35;;;1.20;;
17943;SDS011;9097;47.028;15.444;2023-06-10T17:18:49;1.80;;;1.15;;
17943;SDS011;9097;47.028;15.444;2023-06-10T17:21:51;3.13;;;2.20;;
17943;SDS011;9097;47.028;15.444;2023-06-10T17:24:56;4.18;;;1.80;;
17943;SDS011;9097;47.028;15.444;2023-06-10T17:27:58;2.40;;;1.45;;
17943;SDS011;9097;47.028;15.444;2023-06-10T17:31:01;2.15;;;1.50;;
17943;SDS011;9097;47.028;15.444;2023-06-10T17:34:03;6.95;;;1.98;;
17943;SDS011;9097;47.028;15.444;2023-06-10T17:37:06;3.17;;;2.15;;
17943;SDS011;9097;47.028;15.444;2023-06-10T17:40:11;2.00;;;1.58;;
17943;SDS011;9097;47.028;15.444;2023-06-10T17:43:14;2.28;;;1.45;;
17943;SDS011;9097;47.028;15.444;2023-06-10T17:46:17;2.47;;;1.63;;
17943;SDS011;9097;47.028;15.444;2023-06-10T17:49:19;1.85;;;1.67;;
17943;SDS011;9097;47.028;15.444;2023-06-10T17:52:23;3.58;;;1.80;;
17943;SDS011;9097;47.028;15.444;2023-06-10T17:55:27;3.83;;;1.35;;
17943;SDS011;9097;47.028;15.444;2023-06-10T17:58:30;2.88;;;1.65;;
17943;SDS011;9097;47.028;15.444;2023-06-10T18:01:32;2.60;;;1.27;;
17943;SDS011;9097;47.028;15.444;2023-06-10T18:04:35;2.22;;;1.75;;
17943;SDS011;9097;47.028;15.444;2023-06-10T18:07:37;3.33;;;2.10;;
17943;SDS011;9097;47.028;15.444;2023-06-10T18:10:42;4.20;;;1.70;;
17943;SDS011;9097;47.028;15.444;2023-06-10T18:13:45;2.35;;;1.73;;
17943;SDS011;9097;47.028;15.444;2023-06-10T18:16:47;3.13;;;1.67;;
17943;SDS011;9097;47.028;15.444;2023-06-10T18:19:50;4.28;;;2.80;;
17943;SDS011;9097;47.028;15.444;2023-06-10T18:22:52;3.15;;;1.60;;
17943;SDS011;9097;47.028;15.444;2023-06-10T18:25:57;3.97;;;2.08;;